Tegucigalpa, Honduras
Current Conditions -  °F | °C
As of 10:00 AM on Thursday 23 Oct 2014 (Local Time) from MHTG Reporting Station
Broken Clouds Broken Clouds  
Wind Chill: 25°   Ceiling: 7000
Heat Index: 26°   Visibility: 6mi
Dew Point: 19°   Wind: 7mph
Humidity: 69%   Direction: 180°S
Pressure: 30.03"   Gusts: NA
Location:  14.09°N, 87.22°W
Report Text: MHTG 231600Z 18006KT 9999 FEW024 BKN070 25/19 Q1017 A3003NOSIG
Loading
Personal Weather Stations






























Interactive Weather Map New forecast layout! Learn more

10-Day Weather Forecast

Advertisements
Track Severe Weather on mobile